Time;durP1;ratioP1;P1;durP2;ratioP2;P2;SDS_P1;SDS_P2;PMS_P1;PMS_P2;Temp;Humidity;BMP_temperature;BMP_pressure;BME280_temperature;BME280_humidity;BME280_pressure;Samples;Min_cycle;Max_cycle;Signal;HPM_P1;HPM_P2
2022/03/10 00:01:37;;;;;;;31.35;20.88;;;;;;;4.67;52.39;102242.53;5028803;28;20036;-62
2022/03/10 00:04:03;;;;;;;34.63;21.35;;;;;;;4.61;52.18;102243.56;5032222;28;20706;-62
2022/03/10 00:06:28;;;;;;;33.63;22.85;;;;;;;4.55;52.55;102238.50;5032303;28;20045;-61
2022/03/10 00:08:53;;;;;;;32.47;20.60;;;;;;;4.51;52.46;102250.84;5030776;28;20025;-61
2022/03/10 00:11:18;;;;;;;33.40;21.42;;;;;;;4.48;52.81;102245.69;5022389;28;20052;-61
2022/03/10 00:13:44;;;;;;;32.70;20.50;;;;;;;4.44;52.80;102246.69;5028985;28;20494;-61
2022/03/10 00:16:09;;;;;;;35.65;21.63;;;;;;;4.41;53.03;102252.91;5031922;28;20061;-61
2022/03/10 00:18:34;;;;;;;35.88;21.00;;;;;;;4.37;52.87;102253.88;5032023;28;20470;-61
2022/03/10 00:21:00;;;;;;;32.08;21.23;;;;;;;4.34;53.04;102261.00;5032035;28;20025;-61
2022/03/10 00:23:25;;;;;;;35.22;21.33;;;;;;;4.30;53.24;102256.72;5024405;28;20033;-60
2022/03/10 00:25:50;;;;;;;32.92;21.88;;;;;;;4.25;53.11;102252.47;5031937;28;20084;-61
2022/03/10 00:28:18;;;;;;;35.35;21.75;;;;;;;4.22;53.84;102249.06;5029269;28;20033;-61
2022/03/10 00:30:43;;;;;;;35.80;20.85;;;;;;;4.19;53.50;102254.38;5031883;28;20061;-61
2022/03/10 00:33:08;;;;;;;32.95;21.35;;;;;;;4.14;53.75;102251.03;5031605;28;20053;-61
2022/03/10 00:35:34;;;;;;;37.33;21.17;;;;;;;4.12;53.81;102248.44;5031774;28;20029;-61
2022/03/10 00:37:59;;;;;;;33.63;20.88;;;;;;;4.08;54.38;102255.53;5026107;28;20479;-61
2022/03/10 00:40:26;;;;;;;31.40;21.25;;;;;;;4.04;54.44;102250.41;5031693;28;20442;-62
2022/03/10 00:42:51;;;;;;;35.60;21.75;;;;;;;4.02;54.93;102249.59;5031288;28;20052;-62
2022/03/10 00:45:17;;;;;;;38.25;22.48;;;;;;;3.99;54.71;102255.78;5022060;28;20045;-62
2022/03/10 00:47:42;;;;;;;33.58;21.45;;;;;;;3.98;54.82;102261.06;5031574;28;20057;-61
2022/03/10 00:50:09;;;;;;;34.35;21.70;;;;;;;3.94;54.95;102254.19;5031661;28;20402;-61
2022/03/10 00:52:47;;;;;;;33.58;21.98;;;;;;;3.93;54.71;102255.97;5031360;28;20043;-61
2022/03/10 00:55:16;;;;;;;33.50;22.23;;;;;;;3.86;55.41;102255.25;5017687;28;20124;-62
2022/03/10 00:57:41;;;;;;;36.42;22.08;;;;;;;3.85;55.48;102256.16;5022600;28;20042;-61
2022/03/10 01:00:07;;;;;;;33.95;21.98;;;;;;;3.83;55.70;102260.59;5028674;28;20095;-62
2022/03/10 01:02:34;;;;;;;34.28;23.52;;;;;;;3.82;56.07;102258.84;5031312;28;20458;-62
2022/03/10 01:04:59;;;;;;;33.35;22.08;;;;;;;3.78;56.01;102257.22;5017565;28;20057;-62
2022/03/10 01:07:25;;;;;;;35.20;23.00;;;;;;;3.81;56.50;102251.84;5031235;28;20088;-62
2022/03/10 01:09:51;;;;;;;36.00;22.27;;;;;;;3.82;56.56;102258.00;5031421;28;20045;-62
2022/03/10 01:12:16;;;;;;;36.70;23.00;;;;;;;3.81;56.62;102259.75;5031332;28;20108;-62
2022/03/10 01:14:42;;;;;;;38.28;22.05;;;;;;;3.80;56.56;102263.28;5028148;28;20112;-62
2022/03/10 01:17:07;;;;;;;37.05;22.35;;;;;;;3.79;56.51;102261.56;5030987;28;20095;-61
2022/03/10 01:19:32;;;;;;;37.35;21.90;;;;;;;3.77;56.80;102266.00;5031018;28;20104;-62
2022/03/10 01:21:58;;;;;;;32.13;22.30;;;;;;;3.75;56.95;102259.91;5021326;28;20030;-62
2022/03/10 01:24:24;;;;;;;34.58;21.83;;;;;;;3.72;57.11;102256.50;5031075;28;20371;-61
2022/03/10 01:26:49;;;;;;;34.90;22.20;;;;;;;3.69;57.31;102252.19;5030664;28;20079;-61
2022/03/10 01:29:14;;;;;;;37.03;22.30;;;;;;;3.65;57.15;102250.53;5030612;28;20064;-62
2022/03/10 01:31:40;;;;;;;36.10;21.75;;;;;;;3.63;57.54;102250.59;5027504;28;20109;-62
2022/03/10 01:34:05;;;;;;;35.83;23.13;;;;;;;3.62;57.84;102256.72;5030773;28;20083;-62
2022/03/10 01:36:30;;;;;;;39.13;23.13;;;;;;;3.60;57.87;102252.44;5030616;28;20025;-62
2022/03/10 01:38:56;;;;;;;36.17;23.38;;;;;;;3.59;58.05;102253.31;5030136;28;20475;-62
2022/03/10 01:41:21;;;;;;;34.78;21.67;;;;;;;3.57;57.96;102252.50;5030784;28;20036;-62
2022/03/10 01:43:57;;;;;;;31.13;21.23;;;;;;;3.56;58.02;102256.88;5030795;28;20352;-62
2022/03/10 01:46:22;;;;;;;36.03;22.92;;;;;;;3.52;58.35;102255.22;5030548;28;20034;-62
2022/03/10 01:48:48;;;;;;;35.38;22.40;;;;;;;3.50;58.26;102254.41;5023168;28;20176;-62
2022/03/10 01:51:13;;;;;;;34.47;21.63;;;;;;;3.49;58.49;102258.78;5024940;28;20100;-62
2022/03/10 01:53:40;;;;;;;34.35;22.27;;;;;;;3.46;58.74;102244.88;5030625;28;20026;-62
2022/03/10 01:56:05;;;;;;;33.28;23.02;;;;;;;3.48;58.79;102251.81;5031885;28;20130;-62
2022/03/10 01:58:30;;;;;;;34.58;22.52;;;;;;;3.45;58.65;102253.66;5034858;28;20037;-62
2022/03/10 02:00:56;;;;;;;35.10;22.05;;;;;;;3.42;58.57;102248.47;5025936;28;20164;-62
2022/03/10 02:03:22;;;;;;;37.70;23.50;;;;;;;3.39;58.92;102246.78;5033246;28;20104;-62
2022/03/10 02:05:47;;;;;;;33.38;22.58;;;;;;;3.40;59.47;102245.88;5030442;28;20137;-62
2022/03/10 02:10:56;;;;;;;35.95;23.17;;;;;;;3.36;59.26;102246.00;5022903;28;20154;-61
2022/03/10 02:13:22;;;;;;;35.15;23.77;;;;;;;3.32;59.46;102246.06;5024341;28;20052;-61
2022/03/10 02:18:31;;;;;;;36.00;22.67;;;;;;;3.27;59.68;102237.44;5033388;28;20056;-61
2022/03/10 02:20:56;;;;;;;36.38;21.25;;;;;;;3.24;59.62;102234.88;5033973;28;20029;-61
2022/03/10 02:23:22;;;;;;;33.88;22.92;;;;;;;3.22;59.63;102235.81;5031332;28;20033;-61
2022/03/10 02:25:48;;;;;;;36.80;23.83;;;;;;;3.19;59.98;102236.75;5063267;28;20036;-61
2022/03/10 02:28:13;;;;;;;36.40;23.10;;;;;;;3.18;60.46;102244.66;5029411;28;20038;-62
2022/03/10 02:30:38;;;;;;;36.13;22.80;;;;;;;3.14;59.87;102243.88;5027161;28;20030;-61
2022/03/10 02:33:04;;;;;;;35.55;22.77;;;;;;;3.12;60.26;102241.28;5034145;28;20103;-61
2022/03/10 02:35:30;;;;;;;36.70;22.02;;;;;;;3.09;60.17;102243.97;5034115;28;20033;-61
2022/03/10 02:37:56;;;;;;;33.70;22.60;;;;;;;3.07;60.23;102242.28;5020554;28;20030;-61
2022/03/10 02:40:22;;;;;;;38.28;23.20;;;;;;;3.05;60.54;102246.69;5034199;28;20034;-61
2022/03/10 02:42:47;;;;;;;37.55;22.88;;;;;;;3.00;60.59;102244.19;5033972;28;20029;-62
2022/03/10 02:45:12;;;;;;;32.47;21.42;;;;;;;2.98;60.86;102245.97;5028914;28;20113;-61
2022/03/10 02:47:38;;;;;;;36.58;22.73;;;;;;;2.95;60.89;102243.44;5026709;28;20058;-61
2022/03/10 02:50:06;;;;;;;32.95;21.60;;;;;;;2.92;60.57;102246.97;5033851;28;20112;-61
2022/03/10 02:52:35;;;;;;;34.87;23.40;;;;;;;2.91;61.21;102242.59;5026283;28;20041;-61
2022/03/10 02:55:01;;;;;;;37.20;23.50;;;;;;;2.90;61.22;102247.91;5032505;28;20295;-62
2022/03/10 02:57:28;;;;;;;35.35;23.67;;;;;;;2.87;61.45;102240.09;5031481;28;20491;-62
2022/03/10 02:59:54;;;;;;;34.05;22.08;;;;;;;2.84;61.49;102246.28;5033265;28;20072;-63
2022/03/10 03:02:19;;;;;;;33.33;22.85;;;;;;;2.82;61.41;102244.59;5024009;28;20029;-62
2022/03/10 03:04:45;;;;;;;35.08;23.33;;;;;;;2.80;61.75;102242.00;5027267;28;20318;-62
2022/03/10 03:07:10;;;;;;;36.13;23.55;;;;;;;2.78;61.29;102246.41;5031073;28;20058;-62
2022/03/10 03:09:35;;;;;;;33.92;23.23;;;;;;;2.76;61.93;102240.31;5033314;28;20041;-62
2022/03/10 03:12:01;;;;;;;35.75;24.00;;;;;;;2.73;61.80;102237.75;5033194;28;20037;-62
2022/03/10 03:14:27;;;;;;;34.92;22.83;;;;;;;2.72;61.75;102247.41;5030890;28;20057;-62
2022/03/10 03:16:55;;;;;;;35.60;22.77;;;;;;;2.70;62.32;102245.72;5033090;28;20063;-62
2022/03/10 03:19:20;;;;;;;39.80;24.58;;;;;;;2.68;62.04;102245.75;5033010;28;20526;-62
2022/03/10 03:21:46;;;;;;;35.05;22.65;;;;;;;2.67;61.91;102249.25;5031992;28;20038;-61
2022/03/10 03:26:48;;;;;;;34.95;22.13;;;;;;;2.64;61.95;102248.47;5078265;22;20065;-80
2022/03/10 03:29:14;;;;;;;35.45;23.33;;;;;;;2.64;62.40;102262.44;5032181;28;20022;-80
2022/03/10 03:31:39;;;;;;;34.83;22.20;;;;;;;2.62;62.30;102255.50;5033339;28;20056;-81
2022/03/10 03:34:11;;;;;;;38.90;23.88;;;;;;;2.56;62.37;102262.56;5028509;28;20378;-81
2022/03/10 03:36:40;;;;;;;34.67;22.27;;;;;;;2.58;62.81;102267.78;5028985;28;20491;-80
2022/03/10 03:39:05;;;;;;;34.47;23.73;;;;;;;2.50;62.44;102257.47;5026181;28;20077;-80
2022/03/10 03:41:31;;;;;;;35.90;23.42;;;;;;;2.53;62.87;102262.66;5027440;28;20030;-80
2022/03/10 03:43:57;;;;;;;35.35;24.08;;;;;;;2.52;62.41;102257.44;5028345;28;20017;-80
2022/03/10 03:46:22;;;;;;;35.22;22.58;;;;;;;2.48;63.37;102250.53;5033552;28;20038;-80
2022/03/10 03:48:47;;;;;;;34.47;22.50;;;;;;;2.49;63.19;102257.50;5032558;28;20044;-81
2022/03/10 03:51:13;;;;;;;38.67;23.60;;;;;;;2.45;62.98;102256.72;5033146;28;20033;-79
2022/03/10 03:53:38;;;;;;;35.50;22.92;;;;;;;2.47;63.36;102268.03;5032504;28;20104;-79
2022/03/10 03:56:03;;;;;;;35.50;23.67;;;;;;;2.43;62.79;102268.97;5048473;28;20030;-79
2022/03/10 03:58:29;;;;;;;36.97;23.88;;;;;;;2.42;63.34;102279.50;5032553;28;20109;-81
2022/03/10 04:00:54;;;;;;;37.17;23.55;;;;;;;2.41;63.25;102278.63;5032544;28;20483;-81
2022/03/10 04:03:19;;;;;;;36.63;23.60;;;;;;;2.40;62.92;102285.63;5032890;28;20079;-80
2022/03/10 04:05:44;;;;;;;38.88;23.80;;;;;;;2.37;62.78;102280.44;5032287;28;20530;-80
2022/03/10 04:08:10;;;;;;;36.83;23.23;;;;;;;2.35;62.73;102286.63;5032630;28;20025;-81
2022/03/10 04:10:36;;;;;;;36.53;22.98;;;;;;;2.30;63.07;102281.47;5032741;28;20021;-81
2022/03/10 04:13:02;;;;;;;35.33;22.77;;;;;;;2.29;62.76;102292.84;5032890;28;20049;-80
2022/03/10 04:15:27;;;;;;;39.65;22.95;;;;;;;2.27;63.24;102296.41;5044833;28;20025;-80
2022/03/10 04:17:52;;;;;;;32.92;21.98;;;;;;;2.20;63.15;102290.41;5031674;28;20401;-80
2022/03/10 04:20:18;;;;;;;35.83;24.05;;;;;;;2.16;63.67;102293.97;5032321;28;20057;-81
2022/03/10 04:22:45;;;;;;;35.90;23.25;;;;;;;2.12;63.36;102294.91;5031805;28;20388;-80
2022/03/10 04:25:10;;;;;;;38.20;23.60;;;;;;;2.08;63.21;102288.84;5032095;28;20057;-81
2022/03/10 04:27:36;;;;;;;36.17;22.73;;;;;;;2.06;63.92;102289.78;5030793;28;20037;-80
2022/03/10 04:30:03;;;;;;;36.83;23.45;;;;;;;1.99;63.34;102291.63;5045295;28;20033;-80
2022/03/10 04:32:28;;;;;;;35.47;23.23;;;;;;;1.90;64.07;102279.56;5024940;28;20034;-80
2022/03/10 04:34:53;;;;;;;37.22;23.52;;;;;;;1.89;63.33;102287.47;5030839;28;20056;-80
2022/03/10 04:37:18;;;;;;;36.65;24.13;;;;;;;1.87;63.57;102294.47;5025704;28;20063;-80
2022/03/10 04:39:44;;;;;;;35.88;23.33;;;;;;;1.82;64.02;102287.56;5028749;28;20040;-80
2022/03/10 04:42:10;;;;;;;34.60;23.25;;;;;;;1.80;64.07;102288.47;5032101;28;20029;-81
2022/03/10 04:44:35;;;;;;;38.53;23.85;;;;;;;1.75;64.38;102283.31;5031431;28;20021;-79
2022/03/10 04:47:00;;;;;;;35.17;22.88;;;;;;;1.73;64.41;102287.69;5032177;28;20035;-81
2022/03/10 04:49:26;;;;;;;35.42;21.73;;;;;;;1.73;64.69;102284.22;5031738;28;20026;-80
2022/03/10 04:51:51;;;;;;;33.08;22.27;;;;;;;1.71;64.78;102283.38;5031606;28;20037;-80
2022/03/10 04:54:16;;;;;;;33.30;22.48;;;;;;;1.69;64.08;102283.41;5027116;28;20567;-80
2022/03/10 04:56:42;;;;;;;34.97;22.40;;;;;;;1.69;63.83;102293.03;5031584;28;20025;-81
2022/03/10 04:59:07;;;;;;;32.92;22.65;;;;;;;1.59;64.43;102280.06;5031448;28;20033;-80
2022/03/10 05:01:32;;;;;;;34.67;23.17;;;;;;;1.59;64.79;102287.06;5031316;28;20399;-80
2022/03/10 05:03:58;;;;;;;35.22;22.15;;;;;;;1.55;64.87;102280.13;5031592;28;20033;-80
2022/03/10 05:06:23;;;;;;;36.15;22.30;;;;;;;1.48;64.19;102280.25;5032257;28;20017;-80
2022/03/10 05:08:48;;;;;;;38.85;23.80;;;;;;;1.46;64.16;102286.38;5032274;28;20057;-80
2022/03/10 05:11:14;;;;;;;36.00;22.90;;;;;;;1.43;64.97;102291.66;5031932;28;20022;-80
2022/03/10 05:13:40;;;;;;;35.72;22.67;;;;;;;1.40;64.56;102294.31;5031996;28;20042;-80
2022/03/10 05:16:05;;;;;;;37.70;24.27;;;;;;;1.35;65.09;102294.41;5030596;28;20029;-80
2022/03/10 05:18:30;;;;;;;32.47;21.52;;;;;;;1.30;64.97;102291.00;5031501;28;20472;-80
2022/03/10 05:20:56;;;;;;;35.35;23.58;;;;;;;1.28;65.12;102301.50;5031590;28;20076;-80
2022/03/10 05:23:21;;;;;;;35.88;22.33;;;;;;;1.26;65.43;102299.78;5031463;28;20022;-79
2022/03/10 05:25:47;;;;;;;39.83;23.70;;;;;;;1.23;65.89;102299.81;5030643;28;20057;-80
2022/03/10 05:28:15;;;;;;;32.55;22.02;;;;;;;1.22;65.44;102303.31;5031301;28;20036;-80
2022/03/10 05:30:42;;;;;;;36.45;22.65;;;;;;;1.20;65.60;102305.06;5029870;28;20444;-80
2022/03/10 05:33:09;;;;;;;34.40;22.08;;;;;;;1.17;65.84;102299.91;5031062;28;20027;-80
2022/03/10 05:35:35;;;;;;;36.75;22.58;;;;;;;1.14;65.71;102305.19;5031146;28;20460;-80
2022/03/10 05:38:01;;;;;;;35.55;23.02;;;;;;;1.11;65.89;102300.84;5031154;28;20071;-80
2022/03/10 05:40:26;;;;;;;38.80;23.88;;;;;;;1.08;66.03;102298.25;5030651;28;20021;-79
2022/03/10 05:42:54;;;;;;;33.67;21.60;;;;;;;1.04;65.79;102299.22;5030623;28;20244;-80
2022/03/10 05:45:20;;;;;;;34.83;22.67;;;;;;;1.02;65.82;102294.00;5030961;28;20025;-80
2022/03/10 05:47:50;;;;;;;39.05;22.63;;;;;;;1.03;66.27;102297.47;5031179;28;20041;-80
2022/03/10 05:50:16;;;;;;;37.90;23.33;;;;;;;1.00;66.35;102295.78;5030778;28;20021;-80
2022/03/10 05:52:41;;;;;;;37.70;24.25;;;;;;;0.99;66.79;102298.41;5030969;28;20431;-80
2022/03/10 05:55:07;;;;;;;33.03;23.00;;;;;;;0.99;65.98;102301.03;5029327;28;20056;-80
2022/03/10 05:57:33;;;;;;;36.92;23.20;;;;;;;0.95;66.53;102300.19;5031561;28;20026;-80
2022/03/10 05:59:59;;;;;;;34.40;22.30;;;;;;;0.94;66.46;102298.47;5031290;28;20026;-79
2022/03/10 06:02:24;;;;;;;36.05;22.77;;;;;;;0.94;66.00;102300.22;5031923;28;20041;-81
2022/03/10 06:04:50;;;;;;;36.30;23.15;;;;;;;0.90;66.56;102292.41;5032056;28;20033;-80
2022/03/10 06:07:16;;;;;;;36.72;21.90;;;;;;;0.89;65.94;102295.03;5032005;28;20106;-80
2022/03/10 06:09:42;;;;;;;35.22;22.25;;;;;;;0.89;66.40;102288.03;5032141;28;20431;-79
2022/03/10 06:12:09;;;;;;;38.38;21.73;;;;;;;0.93;66.54;102299.34;5033001;28;20035;-80
2022/03/10 06:14:35;;;;;;;35.33;22.00;;;;;;;0.96;66.83;102298.44;5032071;28;20041;-79
2022/03/10 06:17:01;;;;;;;37.67;22.30;;;;;;;1.00;66.57;102295.78;5032137;28;20449;-79
2022/03/10 06:19:26;;;;;;;34.13;21.45;;;;;;;1.04;66.64;102291.34;5031997;28;20100;-79
2022/03/10 06:21:51;;;;;;;35.15;21.50;;;;;;;1.07;66.30;102297.41;5031440;28;20029;-80
2022/03/10 06:24:17;;;;;;;35.78;21.15;;;;;;;1.08;65.91;102293.03;5031822;28;20017;-80
2022/03/10 06:26:43;;;;;;;33.78;20.98;;;;;;;1.11;66.37;102300.84;5031351;28;20053;-80
2022/03/10 06:29:09;;;;;;;34.25;21.38;;;;;;;1.14;65.88;102302.56;5032095;28;20061;-80
2022/03/10 06:31:35;;;;;;;36.00;22.40;;;;;;;1.15;66.47;102310.41;5024825;28;20065;-80
2022/03/10 06:34:00;;;;;;;34.72;21.83;;;;;;;1.16;66.42;102309.50;5017152;28;20087;-80
2022/03/10 06:36:26;;;;;;;35.25;22.65;;;;;;;1.18;66.08;102312.94;5034151;28;20579;-79
2022/03/10 06:38:53;;;;;;;32.15;22.23;;;;;;;1.19;65.88;102303.38;5051728;28;20033;-80
2022/03/10 06:41:18;;;;;;;37.33;21.75;;;;;;;1.21;65.83;102297.22;5038257;28;20541;-80
2022/03/10 06:43:44;;;;;;;31.83;20.40;;;;;;;1.23;66.04;102299.81;5036788;28;20029;-80
2022/03/10 06:46:09;;;;;;;34.65;21.77;;;;;;;1.25;66.13;102309.38;5030564;28;20065;-80
2022/03/10 06:48:34;;;;;;;35.65;22.10;;;;;;;1.25;65.71;102306.75;5033563;28;20071;-79
2022/03/10 06:51:00;;;;;;;35.90;22.48;;;;;;;1.32;65.60;102306.69;5033851;28;20037;-80
2022/03/10 06:53:25;;;;;;;34.78;21.85;;;;;;;1.36;65.49;102316.22;5035798;28;20041;-79
2022/03/10 06:55:51;;;;;;;38.67;22.08;;;;;;;1.40;65.98;102317.88;5055191;28;20032;-80
2022/03/10 06:58:16;;;;;;;39.15;22.50;;;;;;;1.45;65.69;102316.09;5051712;28;20040;-80
2022/03/10 07:00:41;;;;;;;38.22;23.70;;;;;;;1.45;66.01;102310.84;5050137;28;20025;-80
2022/03/10 07:03:07;;;;;;;37.55;22.23;;;;;;;1.50;65.90;102319.50;5034320;28;20468;-80
2022/03/10 07:05:32;;;;;;;35.05;21.58;;;;;;;1.58;65.94;102320.25;5035549;28;20037;-81
2022/03/10 07:07:57;;;;;;;43.35;23.30;;;;;;;1.62;65.33;102319.31;5035645;28;20021;-80
2022/03/10 07:10:23;;;;;;;36.30;23.02;;;;;;;1.71;65.20;102318.28;5034868;28;20124;-80
2022/03/10 07:12:48;;;;;;;41.50;23.83;;;;;;;1.80;65.45;102327.78;5034527;28;20040;-79
2022/03/10 07:15:14;;;;;;;37.08;22.67;;;;;;;1.87;65.41;102324.16;5035719;28;20029;-80
2022/03/10 07:17:41;;;;;;;39.42;22.73;;;;;;;1.94;65.11;102322.31;5032592;28;20412;-79
2022/03/10 07:20:07;;;;;;;40.60;22.67;;;;;;;2.04;64.52;102332.59;5034275;28;20120;-79
2022/03/10 07:22:32;;;;;;;42.28;21.85;;;;;;;2.08;64.71;102317.66;5033973;28;20451;-79
2022/03/10 07:24:58;;;;;;;37.50;22.15;;;;;;;2.19;64.47;102325.38;5033770;28;20153;-80
2022/03/10 07:27:23;;;;;;;38.95;23.00;;;;;;;2.28;64.43;102326.94;5033788;28;20452;-79
2022/03/10 07:29:49;;;;;;;36.58;22.55;;;;;;;2.33;64.16;102328.63;5034941;28;20018;-79
2022/03/10 07:32:14;;;;;;;39.25;21.73;;;;;;;2.39;63.72;102325.84;5034486;28;20023;-79
2022/03/10 07:34:39;;;;;;;38.40;22.52;;;;;;;2.47;63.48;102322.25;5034724;28;20571;-78
2022/03/10 07:37:05;;;;;;;41.33;23.00;;;;;;;2.54;63.47;102316.84;5034141;28;20029;-79
2022/03/10 07:39:30;;;;;;;36.33;22.35;;;;;;;2.70;63.14;102324.44;5034119;28;20038;-78
2022/03/10 07:41:56;;;;;;;40.15;22.52;;;;;;;2.82;62.96;102318.06;5030478;28;20037;-78
2022/03/10 07:44:22;;;;;;;39.28;23.67;;;;;;;2.94;62.81;102323.91;5033231;28;20055;-78
2022/03/10 07:46:47;;;;;;;37.90;22.50;;;;;;;3.07;62.10;102316.63;5028735;28;20029;-78
2022/03/10 07:49:12;;;;;;;37.75;24.40;;;;;;;3.17;62.33;102309.44;5032983;28;20041;-79
2022/03/10 07:51:42;;;;;;;36.40;22.80;;;;;;;3.39;61.63;102322.09;5031041;28;20049;-78
2022/03/10 07:54:08;;;;;;;40.10;23.35;;;;;;;3.57;61.01;102310.28;5032031;28;20060;-79
2022/03/10 07:56:33;;;;;;;41.25;22.30;;;;;;;3.73;60.23;102310.78;5031491;28;20524;-79
2022/03/10 07:58:58;;;;;;;38.42;22.23;;;;;;;3.96;59.43;102318.09;5032696;28;20111;-79
2022/03/10 08:01:24;;;;;;;34.72;22.05;;;;;;;4.17;59.37;102317.53;5032988;28;20018;-79
2022/03/10 08:03:49;;;;;;;34.72;21.50;;;;;;;4.34;58.25;102300.47;5032548;28;20025;-79
2022/03/10 08:06:14;;;;;;;34.58;20.70;;;;;;;4.58;57.73;102305.06;5032868;28;20582;-79
2022/03/10 08:08:40;;;;;;;36.10;21.55;;;;;;;4.80;56.99;102304.44;5032926;28;20028;-79
2022/03/10 08:11:06;;;;;;;35.45;21.23;;;;;;;4.97;56.71;102302.16;5032810;28;20032;-79
2022/03/10 08:13:31;;;;;;;37.28;21.98;;;;;;;5.15;55.84;102303.38;5033358;28;20504;-79
2022/03/10 08:15:57;;;;;;;36.33;21.60;;;;;;;5.36;55.69;102314.16;5033126;28;20038;-79
2022/03/10 08:18:23;;;;;;;35.95;21.35;;;;;;;5.57;54.59;102316.13;5033319;28;20472;-79
2022/03/10 08:20:49;;;;;;;37.45;22.08;;;;;;;5.81;55.07;102313.63;5033355;28;20037;-79
2022/03/10 08:23:16;;;;;;;33.30;21.15;;;;;;;6.03;53.40;102313.81;5035794;28;20079;-80
2022/03/10 08:25:42;;;;;;;32.08;21.23;;;;;;;6.27;52.19;102309.44;5032015;28;20045;-79
2022/03/10 08:28:08;;;;;;;32.67;21.70;;;;;;;6.56;51.93;102319.88;5031571;28;20068;-80
2022/03/10 08:30:34;;;;;;;36.08;21.35;;;;;;;6.80;51.19;102319.00;5032714;28;20025;-80
2022/03/10 08:32:59;;;;;;;34.20;22.23;;;;;;;7.07;50.34;102307.44;5032439;28;20071;-78
2022/03/10 08:35:24;;;;;;;35.30;21.83;;;;;;;7.33;49.89;102307.28;5032327;28;20057;-80
2022/03/10 08:37:50;;;;;;;33.80;20.63;;;;;;;7.55;48.69;102304.66;5031938;28;20040;-80
2022/03/10 08:40:18;;;;;;;34.30;21.50;;;;;;;7.78;47.75;102308.16;5032069;28;20021;-79
2022/03/10 08:42:45;;;;;;;34.28;21.05;;;;;;;7.95;47.53;102291.56;5031841;28;20364;-79
2022/03/10 08:45:12;;;;;;;34.22;21.05;;;;;;;8.19;47.51;102300.22;5032488;28;20121;-80
2022/03/10 08:47:37;;;;;;;32.20;22.17;;;;;;;8.40;46.55;102294.94;5031947;28;20037;-80
2022/03/10 08:50:04;;;;;;;34.03;22.08;;;;;;;8.65;46.49;102298.22;5034390;28;20041;-79
2022/03/10 08:52:30;;;;;;;34.58;21.73;;;;;;;8.81;45.49;102292.22;5034364;28;20026;-80
2022/03/10 08:54:55;;;;;;;32.15;21.23;;;;;;;9.05;45.21;102292.88;5034404;28;20028;-80
2022/03/10 08:57:21;;;;;;;30.80;21.08;;;;;;;9.23;44.50;102296.47;5033982;28;20025;-80
2022/03/10 08:59:46;;;;;;;35.25;21.35;;;;;;;9.43;44.86;102288.41;5033910;28;20025;-80
2022/03/10 09:02:12;;;;;;;33.78;22.50;;;;;;;9.64;43.88;102288.28;5033741;28;20036;-80
2022/03/10 09:04:37;;;;;;;34.80;21.58;;;;;;;9.87;43.73;102292.44;5033864;28;20366;-80
2022/03/10 09:07:03;;;;;;;33.65;21.77;;;;;;;10.10;43.72;102293.06;5033896;28;20045;-80
2022/03/10 09:09:28;;;;;;;34.78;22.30;;;;;;;10.28;42.54;102283.31;5033088;28;20036;-79
2022/03/10 09:11:54;;;;;;;30.40;20.15;;;;;;;10.50;43.01;102280.41;5032397;28;20018;-80
2022/03/10 09:14:19;;;;;;;36.35;22.38;;;;;;;10.68;41.72;102281.22;5032231;28;20034;-81
2022/03/10 09:16:45;;;;;;;34.30;20.90;;;;;;;10.91;42.15;102270.19;5032139;28;20505;-80
2022/03/10 09:19:11;;;;;;;31.17;21.30;;;;;;;11.15;41.27;102266.25;5032438;28;20457;-81
2022/03/10 09:21:36;;;;;;;33.75;21.23;;;;;;;11.37;40.30;102260.56;5032623;28;20040;-82
2022/03/10 09:24:01;;;;;;;37.17;20.98;;;;;;;11.56;39.67;102260.38;5033042;28;20048;-80
2022/03/10 09:26:26;;;;;;;33.70;22.33;;;;;;;11.66;39.68;102264.19;5032145;28;20094;-81
2022/03/10 09:28:52;;;;;;;33.72;21.30;;;;;;;11.85;40.50;102262.16;5032442;28;20120;-81
2022/03/10 09:31:18;;;;;;;31.52;20.52;;;;;;;11.97;39.45;102257.06;5031994;28;20030;-81
2022/03/10 09:33:45;;;;;;;32.58;21.58;;;;;;;12.09;39.11;102252.81;5032950;28;20683;-81
2022/03/10 09:36:10;;;;;;;31.38;21.65;;;;;;;12.42;39.71;102246.38;5029189;28;20572;-81
2022/03/10 09:38:36;;;;;;;34.80;19.75;;;;;;;12.64;39.15;102245.88;5014451;28;20033;-80
2022/03/10 09:41:01;;;;;;;32.63;20.45;;;;;;;12.78;38.36;102249.38;5028586;28;20032;-81
2022/03/10 09:43:28;;;;;;;29.98;19.30;;;;;;;12.90;38.11;102244.25;5033656;28;20029;-82
2022/03/10 09:45:54;;;;;;;31.58;20.10;;;;;;;12.91;37.72;102244.16;5032775;28;20413;-81
2022/03/10 09:48:19;;;;;;;31.25;20.20;;;;;;;13.06;38.46;102246.78;5031859;28;20037;-81
2022/03/10 09:50:49;;;;;;;31.55;19.67;;;;;;;13.32;39.33;102235.28;5033606;28;20038;-81
2022/03/10 09:53:15;;;;;;;29.15;20.17;;;;;;;13.44;37.40;102238.97;5031972;28;20469;-81
2022/03/10 09:55:41;;;;;;;32.22;19.58;;;;;;;13.59;37.15;102237.09;5033813;28;20376;-81
2022/03/10 09:58:08;;;;;;;31.08;20.55;;;;;;;13.73;36.80;102228.13;5033086;28;20026;-81
2022/03/10 10:00:33;;;;;;;31.33;19.75;;;;;;;13.81;36.79;102227.63;5033313;28;20104;-81
2022/03/10 10:02:59;;;;;;;28.25;20.00;;;;;;;14.08;36.57;102222.19;5029314;28;20033;-82
2022/03/10 10:05:26;;;;;;;26.80;18.65;;;;;;;14.34;36.06;102220.38;5013267;28;20033;-82
2022/03/10 10:08:05;;;;;;;28.63;18.83;;;;;;;14.54;37.71;102218.09;5020876;28;20038;-81
2022/03/10 10:10:31;;;;;;;;;;;;;;;14.78;39.17;102224.34;5033266;28;20028;-81
2022/03/10 10:12:56;;;;;;;25.73;18.45;;;;;;;15.00;35.47;102212.09;5033178;28;19996;-82
2022/03/10 10:15:22;;;;;;;30.63;19.73;;;;;;;15.21;35.00;102211.50;5033260;28;20164;-82
2022/03/10 10:17:56;;;;;;;30.08;20.42;;;;;;;15.34;35.76;102213.13;5036665;28;20036;-82
2022/03/10 10:20:22;;;;;;;26.45;18.55;;;;;;;15.49;34.69;102205.75;5027529;28;20057;-82
2022/03/10 10:22:48;;;;;;;32.92;19.77;;;;;;;15.60;34.51;102202.25;5037440;28;20111;-83
2022/03/10 10:25:19;;;;;;;28.88;19.40;;;;;;;15.58;34.30;102209.56;5037915;28;20048;-82
2022/03/10 10:27:46;;;;;;;29.90;18.77;;;;;;;15.64;34.80;102201.06;5037090;28;20033;-81
2022/03/10 10:30:12;;;;;;;28.00;19.23;;;;;;;15.79;34.03;102211.63;5037376;28;20128;-81
2022/03/10 10:32:55;;;;;;;26.45;18.70;;;;;;;15.96;34.94;102205.78;5038129;28;20026;-81
2022/03/10 10:35:23;;;;;;;28.73;19.65;;;;;;;16.15;34.14;102213.22;5038547;28;20037;-82
2022/03/10 10:37:51;;;;;;;29.67;19.90;;;;;;;16.30;33.34;102203.13;5038842;28;20056;-81
2022/03/10 10:40:31;;;;;;;26.48;18.75;;;;;;;16.26;33.90;102196.31;5039818;28;20030;-81
2022/03/10 10:42:57;;;;;;;28.27;19.92;;;;;;;16.34;32.73;102198.41;5039168;28;20020;-81
2022/03/10 10:45:32;;;;;;;28.50;19.10;;;;;;;16.42;33.14;102191.44;5038844;28;20112;-81
2022/03/10 10:48:06;;;;;;;27.63;18.35;;;;;;;16.56;33.43;102198.38;5037748;28;20432;-82
2022/03/10 10:50:33;;;;;;;27.52;18.42;;;;;;;16.67;33.01;102196.63;5039021;28;20017;-82
2022/03/10 10:52:58;;;;;;;26.13;18.23;;;;;;;16.61;32.32;102188.09;5039734;28;20029;-81
2022/03/10 10:55:45;;;;;;;26.52;18.27;;;;;;;16.74;34.17;102197.88;5038473;28;20488;-82
2022/03/10 10:58:14;;;;;;;27.48;18.33;;;;;;;16.89;32.66;102182.38;5040978;28;20026;-84
2022/03/10 11:00:42;;;;;;;26.38;18.65;;;;;;;16.89;32.07;102175.16;5042817;28;20108;-81
2022/03/10 11:03:32;;;;;;;27.90;17.63;;;;;;;17.19;33.49;102179.81;5034990;28;20057;-80
2022/03/10 11:05:58;;;;;;;29.10;16.92;;;;;;;17.27;32.03;102176.50;5036361;28;20104;-80
2022/03/10 11:08:25;;;;;;;26.58;18.92;;;;;;;17.34;31.45;102176.84;5035060;28;20045;-80
2022/03/10 11:10:51;;;;;;;24.55;17.77;;;;;;;17.49;31.67;102172.84;5035049;28;20113;-80
2022/03/10 11:13:16;;;;;;;25.05;16.95;;;;;;;17.57;31.45;102172.19;5034668;28;20108;-81
2022/03/10 11:15:43;;;;;;;24.55;17.20;;;;;;;17.63;32.18;102174.34;5034879;28;20052;-80
2022/03/10 11:18:13;;;;;;;26.73;17.88;;;;;;;17.52;31.27;102172.59;5034594;28;20034;-80
2022/03/10 11:20:41;;;;;;;24.65;17.70;;;;;;;17.37;31.17;102166.69;5034951;28;20413;-79